createdAt,value
2022-08-08T00:02:03.697Z,14.00
2022-08-08T00:05:09.706Z,14.00
2022-08-08T00:08:29.479Z,14.00
2022-08-08T00:11:46.720Z,14.00
2022-08-08T00:15:24.353Z,14.00
2022-08-08T00:18:55.783Z,14.00
2022-08-08T00:22:12.719Z,14.00
2022-08-08T00:25:12.543Z,14.00
2022-08-08T00:28:34.643Z,14.06
2022-08-08T00:32:20.909Z,14.06
2022-08-08T00:35:24.294Z,14.06
2022-08-08T00:38:56.413Z,14.06
2022-08-08T00:42:42.153Z,14.06
2022-08-08T00:45:39.248Z,14.13
2022-08-08T00:48:59.320Z,14.13
2022-08-08T00:52:39.247Z,14.13
2022-08-08T00:56:30.417Z,14.13
2022-08-08T00:59:52.015Z,14.19
2022-08-08T01:04:01.557Z,14.19
2022-08-08T01:07:08.723Z,14.19
2022-08-08T01:10:54.851Z,14.19
2022-08-08T01:14:00.927Z,14.19
2022-08-08T01:17:18.423Z,14.19
2022-08-08T01:20:54.014Z,14.19
2022-08-08T01:24:05.797Z,14.13
2022-08-08T01:27:00.114Z,14.19
2022-08-08T01:30:33.276Z,14.13
2022-08-08T01:34:01.519Z,14.13
2022-08-08T01:37:51.060Z,14.19
2022-08-08T01:41:22.213Z,14.19
2022-08-08T01:44:50.350Z,14.19
2022-08-08T01:48:31.148Z,14.25
2022-08-08T01:52:52.654Z,14.25
2022-08-08T01:56:26.979Z,14.25
2022-08-08T01:59:15.165Z,14.25
2022-08-08T02:02:34.121Z,14.25
2022-08-08T02:05:59.099Z,14.31
2022-08-08T02:09:17.755Z,14.31
2022-08-08T02:12:22.046Z,14.31
2022-08-08T02:15:34.824Z,14.31
2022-08-08T02:19:02.990Z,14.31
2022-08-08T02:22:54.950Z,14.38
2022-08-08T02:26:21.918Z,14.38
2022-08-08T02:29:46.695Z,14.38
2022-08-08T02:33:03.960Z,14.50
2022-08-08T02:36:16.360Z,14.50
2022-08-08T02:39:41.820Z,14.50
2022-08-08T02:44:43.193Z,14.50
2022-08-08T02:47:28.179Z,14.50
2022-08-08T02:50:58.531Z,14.50
2022-08-08T02:54:38.185Z,14.50
2022-08-08T02:57:45.720Z,14.44
2022-08-08T03:01:08.652Z,14.38
2022-08-08T03:05:03.900Z,14.38
2022-08-08T03:08:16.702Z,14.38
2022-08-08T03:12:06.003Z,14.38
2022-08-08T03:15:56.571Z,14.44
2022-08-08T03:18:31.099Z,14.44
2022-08-08T03:21:26.830Z,14.50
2022-08-08T03:24:29.074Z,14.56
2022-08-08T03:27:48.340Z,14.56
2022-08-08T03:30:49.022Z,14.69
2022-08-08T03:34:00.823Z,14.75
2022-08-08T03:36:50.251Z,14.81
2022-08-08T03:39:39.290Z,14.88
2022-08-08T03:42:45.703Z,14.94
2022-08-08T03:46:03.330Z,14.94
2022-08-08T03:49:26.584Z,14.94
2022-08-08T03:52:13.138Z,15.00
2022-08-08T03:55:20.332Z,15.00
2022-08-08T03:58:35.512Z,15.00
2022-08-08T04:02:31.775Z,15.06
2022-08-08T04:04:52.949Z,15.19
2022-08-08T04:07:41.822Z,15.19
2022-08-08T04:10:32.821Z,15.25
2022-08-08T04:13:23.432Z,15.31
2022-08-08T04:16:14.711Z,15.44
2022-08-08T04:19:23.454Z,15.44
2022-08-08T04:22:16.715Z,15.50
2022-08-08T04:25:07.822Z,15.69
2022-08-08T04:28:35.170Z,15.75
2022-08-08T04:31:06.207Z,15.75
2022-08-08T04:33:57.303Z,15.75
2022-08-08T04:36:45.266Z,15.69
2022-08-08T04:40:03.545Z,15.75
2022-08-08T04:42:46.585Z,15.81
2022-08-08T04:45:53.667Z,15.88
2022-08-08T04:48:44.286Z,15.94
2022-08-08T04:51:57.166Z,16.00
2022-08-08T04:54:42.431Z,16.19
2022-08-08T04:57:31.227Z,16.25
2022-08-08T05:00:25.467Z,16.25
2022-08-08T05:03:18.494Z,16.19
2022-08-08T05:06:27.914Z,16.13
2022-08-08T05:09:18.050Z,16.06
2022-08-08T05:12:09.250Z,16.06
2022-08-08T05:14:58.637Z,16.06
2022-08-08T05:17:53.575Z,16.13
2022-08-08T05:20:50.318Z,16.38
2022-08-08T05:23:41.154Z,16.69
2022-08-08T05:26:36.813Z,17.06
2022-08-08T05:29:29.343Z,17.31
2022-08-08T05:32:18.445Z,17.38
2022-08-08T05:35:09.627Z,17.56
2022-08-08T05:38:29.344Z,17.69
2022-08-08T05:41:25.416Z,17.69
2022-08-08T05:44:22.073Z,17.69
2022-08-08T05:47:21.848Z,17.75
2022-08-08T05:50:11.756Z,18.06
2022-08-08T05:53:23.174Z,18.38
2022-08-08T05:56:15.010Z,18.75
2022-08-08T05:59:12.457Z,19.00
2022-08-08T06:02:03.950Z,19.00
2022-08-08T06:04:56.343Z,18.88
2022-08-08T06:07:51.085Z,18.69
2022-08-08T06:10:42.762Z,18.69
2022-08-08T06:13:35.664Z,18.81
2022-08-08T06:16:36.899Z,19.06
2022-08-08T06:19:43.201Z,19.31
2022-08-08T06:22:32.745Z,19.63
2022-08-08T06:26:34.952Z,19.75
2022-08-08T06:28:49.147Z,19.75
2022-08-08T06:31:52.460Z,19.88
2022-08-08T06:35:12.126Z,19.75
2022-08-08T06:38:13.934Z,19.69
2022-08-08T06:41:13.512Z,19.63
2022-08-08T06:44:04.561Z,19.69
2022-08-08T06:46:58.818Z,19.81
2022-08-08T06:49:56.667Z,20.13
2022-08-08T06:52:47.846Z,20.94
2022-08-08T06:55:41.815Z,21.56
2022-08-08T06:58:32.983Z,21.56
2022-08-08T07:02:20.694Z,21.38
2022-08-08T07:05:00.563Z,21.38
2022-08-08T07:07:52.265Z,21.25
2022-08-08T07:10:50.315Z,21.00
2022-08-08T07:14:00.645Z,20.88
2022-08-08T07:17:14.421Z,21.06
2022-08-08T07:20:35.107Z,21.13
2022-08-08T07:24:25.332Z,21.44
2022-08-08T07:27:35.491Z,22.88
2022-08-08T07:30:33.087Z,25.13
2022-08-08T07:33:25.776Z,26.63
2022-08-08T07:36:15.421Z,28.19
2022-08-08T07:39:06.962Z,30.81
2022-08-08T07:42:04.908Z,31.75
2022-08-08T07:44:53.373Z,30.94
2022-08-08T07:47:49.204Z,30.13
2022-08-08T07:50:43.387Z,30.00
2022-08-08T07:54:15.850Z,30.50
2022-08-08T07:57:52.151Z,31.50
2022-08-08T08:00:53.220Z,30.63
2022-08-08T08:04:04.006Z,30.50
2022-08-08T08:06:53.658Z,31.75
2022-08-08T08:09:42.955Z,34.19
2022-08-08T08:12:38.056Z,33.31
2022-08-08T08:15:32.619Z,31.44
2022-08-08T08:18:31.641Z,34.19
2022-08-08T08:21:35.345Z,36.75
2022-08-08T08:24:32.564Z,35.94
2022-08-08T08:27:23.734Z,36.75
2022-08-08T08:30:18.022Z,37.50
2022-08-08T08:33:10.842Z,38.31
2022-08-08T08:36:20.241Z,37.75
2022-08-08T08:39:17.637Z,37.88
2022-08-08T08:42:13.994Z,34.81
2022-08-08T08:45:20.706Z,36.00
2022-08-08T08:48:16.492Z,44.44
2022-08-08T08:51:14.460Z,42.75
2022-08-08T08:54:03.741Z,44.63
2022-08-08T08:56:55.785Z,40.19
2022-08-08T09:00:01.583Z,35.81
2022-08-08T09:02:59.001Z,31.75
2022-08-08T09:05:54.830Z,29.75
2022-08-08T09:08:51.923Z,29.25
2022-08-08T09:11:47.688Z,42.56
2022-08-08T09:14:58.635Z,51.31
2022-08-08T09:17:55.939Z,50.38
2022-08-08T09:22:00.537Z,45.63
2022-08-08T09:23:56.722Z,39.25
2022-08-08T09:27:03.903Z,35.25
2022-08-08T09:30:14.755Z,30.44
2022-08-08T09:33:12.296Z,28.25
2022-08-08T09:36:23.121Z,28.38
2022-08-08T09:39:20.385Z,28.94
2022-08-08T09:42:22.171Z,28.88
2022-08-08T09:46:01.005Z,28.63
2022-08-08T09:48:36.462Z,30.25
2022-08-08T09:51:41.695Z,33.75
2022-08-08T09:54:45.780Z,34.75
2022-08-08T09:57:46.261Z,33.25
2022-08-08T10:00:53.120Z,32.38
2022-08-08T10:03:55.816Z,31.63
2022-08-08T10:06:45.111Z,30.94
2022-08-08T10:09:58.901Z,32.75
2022-08-08T10:12:53.250Z,32.38
2022-08-08T10:16:00.289Z,33.06
2022-08-08T10:18:55.296Z,32.50
2022-08-08T10:21:50.298Z,31.44
2022-08-08T10:24:47.619Z,30.06
2022-08-08T10:27:43.764Z,28.94
2022-08-08T10:31:00.164Z,28.19
2022-08-08T10:34:19.593Z,27.56
2022-08-08T10:36:51.502Z,26.63
2022-08-08T10:39:54.801Z,25.88
2022-08-08T10:42:44.956Z,25.56
2022-08-08T10:45:55.936Z,25.56
2022-08-08T10:48:57.154Z,25.56
2022-08-08T10:51:51.411Z,26.25
2022-08-08T10:54:41.322Z,26.44
2022-08-08T10:57:45.124Z,26.31
2022-08-08T11:00:53.455Z,25.88
2022-08-08T11:04:00.395Z,25.44
2022-08-08T11:06:59.852Z,25.81
2022-08-08T11:09:48.301Z,26.44
2022-08-08T11:13:27.883Z,26.56
2022-08-08T11:16:32.355Z,26.94
2022-08-08T11:19:25.333Z,26.88
2022-08-08T11:22:16.405Z,26.94
2022-08-08T11:25:14.294Z,27.00
2022-08-08T11:28:08.962Z,27.88
2022-08-08T11:31:01.013Z,27.81
2022-08-08T11:34:02.872Z,28.38
2022-08-08T11:36:52.227Z,28.44
2022-08-08T11:39:57.332Z,28.25
2022-08-08T11:42:46.601Z,28.44
2022-08-08T11:45:59.913Z,28.69
2022-08-08T11:48:44.873Z,29.19
2022-08-08T11:51:40.100Z,29.81
2022-08-08T11:54:46.691Z,30.94
2022-08-08T11:57:35.045Z,30.75
2022-08-08T12:00:28.891Z,30.94
2022-08-08T12:03:36.490Z,31.13
2022-08-08T12:06:26.294Z,31.13
2022-08-08T12:09:16.925Z,31.63
2022-08-08T12:12:07.648Z,32.06
2022-08-08T12:15:06.244Z,31.56
2022-08-08T12:17:57.495Z,31.88
2022-08-08T12:20:53.249Z,32.06
2022-08-08T12:23:51.822Z,31.69
2022-08-08T12:26:54.168Z,30.75
2022-08-08T12:30:01.818Z,29.19
2022-08-08T12:32:50.862Z,29.25
2022-08-08T12:35:40.717Z,28.88
2022-08-08T12:38:55.619Z,28.00
2022-08-08T12:41:57.391Z,27.63
2022-08-08T12:44:50.441Z,27.44
2022-08-08T12:48:04.712Z,27.38
2022-08-08T12:50:57.415Z,26.56
2022-08-08T12:53:59.640Z,25.50
2022-08-08T12:56:48.058Z,25.63
2022-08-08T13:00:05.264Z,25.94
2022-08-08T13:03:01.068Z,25.75
2022-08-08T13:06:03.890Z,25.19
2022-08-08T13:08:56.078Z,24.50
2022-08-08T13:12:27.770Z,24.38
2022-08-08T13:15:07.346Z,23.75
2022-08-08T13:18:11.814Z,23.75
2022-08-08T13:21:02.495Z,24.50
2022-08-08T13:23:52.238Z,25.31
2022-08-08T13:26:44.402Z,25.00
2022-08-08T13:29:37.982Z,24.81
2022-08-08T13:32:36.165Z,24.56
2022-08-08T13:35:29.496Z,24.19
2022-08-08T13:38:28.219Z,23.56
2022-08-08T13:41:17.362Z,23.31
2022-08-08T13:44:10.823Z,23.13
2022-08-08T13:47:03.734Z,23.19
2022-08-08T13:50:37.542Z,23.19
2022-08-08T13:53:33.964Z,23.00
2022-08-08T13:56:44.808Z,23.00
2022-08-08T13:59:49.206Z,22.94
2022-08-08T14:02:41.313Z,22.88
2022-08-08T14:05:34.311Z,22.63
2022-08-08T14:08:29.761Z,22.44
2022-08-08T14:11:24.815Z,22.50
2022-08-08T14:14:13.183Z,22.75
2022-08-08T14:17:36.194Z,22.81
2022-08-08T14:20:56.156Z,23.13
2022-08-08T14:24:06.817Z,23.19
2022-08-08T14:26:55.314Z,23.44
2022-08-08T14:29:57.712Z,23.81
2022-08-08T14:32:53.978Z,24.50
2022-08-08T14:35:43.174Z,24.81
2022-08-08T14:38:52.027Z,24.25
2022-08-08T14:41:54.312Z,23.75
2022-08-08T14:45:10.049Z,23.19
2022-08-08T14:48:03.034Z,22.75
2022-08-08T14:50:53.375Z,22.56
2022-08-08T14:53:55.531Z,22.31
2022-08-08T14:56:45.030Z,22.25
2022-08-08T14:59:44.314Z,22.50
2022-08-08T15:02:59.210Z,22.88
2022-08-08T15:05:53.821Z,23.19
2022-08-08T15:08:54.529Z,23.25
2022-08-08T15:11:46.405Z,23.13
2022-08-08T15:14:41.274Z,22.88
2022-08-08T15:17:29.629Z,22.69
2022-08-08T15:20:18.641Z,22.44
2022-08-08T15:23:06.822Z,22.25
2022-08-08T15:25:55.605Z,22.19
2022-08-08T15:28:43.987Z,22.06
2022-08-08T15:32:17.165Z,22.06
2022-08-08T15:34:42.403Z,21.94
2022-08-08T15:37:30.718Z,21.81
2022-08-08T15:40:19.030Z,21.56
2022-08-08T15:43:35.317Z,21.38
2022-08-08T15:46:15.619Z,21.19
2022-08-08T15:49:04.565Z,20.94
2022-08-08T15:51:54.851Z,20.69
2022-08-08T15:54:47.801Z,20.44
2022-08-08T15:57:39.985Z,20.31
2022-08-08T16:00:32.178Z,20.13
2022-08-08T16:03:23.509Z,20.00
2022-08-08T16:06:14.289Z,19.94
2022-08-08T16:13:05.367Z,19.81
2022-08-08T16:13:09.455Z,19.69
2022-08-08T16:15:18.934Z,19.63
2022-08-08T16:18:12.040Z,19.56
2022-08-08T16:21:01.167Z,19.44
2022-08-08T16:23:49.477Z,19.38
2022-08-08T16:26:44.074Z,19.31
2022-08-08T16:29:37.379Z,19.31
2022-08-08T16:32:42.420Z,19.44
2022-08-08T16:35:30.564Z,19.56
2022-08-08T16:38:31.451Z,19.69
2022-08-08T16:41:20.373Z,19.81
2022-08-08T16:44:12.724Z,19.88
2022-08-08T16:47:40.530Z,20.06
2022-08-08T16:50:31.945Z,20.00
2022-08-08T16:55:18.391Z,20.00
2022-08-08T16:56:31.668Z,19.69
2022-08-08T16:59:21.600Z,19.38
2022-08-08T17:02:38.712Z,19.19
2022-08-08T17:05:31.283Z,19.13
2022-08-08T17:08:33.963Z,19.06
2022-08-08T17:11:27.935Z,19.00
2022-08-08T17:14:32.997Z,18.88
2022-08-08T17:17:41.812Z,18.81
2022-08-08T17:20:39.525Z,18.75
2022-08-08T17:24:00.878Z,18.81
2022-08-08T17:26:35.932Z,18.88
2022-08-08T17:29:25.280Z,18.81
2022-08-08T17:32:13.384Z,18.75
2022-08-08T17:35:52.554Z,18.75
2022-08-08T17:38:11.447Z,18.56
2022-08-08T17:40:59.395Z,18.56
2022-08-08T17:44:00.699Z,18.56
2022-08-08T17:46:53.857Z,18.56
2022-08-08T17:49:43.402Z,18.44
2022-08-08T17:52:34.312Z,18.31
2022-08-08T17:56:03.968Z,18.19
2022-08-08T17:58:32.223Z,18.06
2022-08-08T18:01:32.139Z,17.88
2022-08-08T18:04:33.752Z,17.63
2022-08-08T18:08:03.542Z,17.44
2022-08-08T18:10:32.812Z,17.25
2022-08-08T18:13:21.749Z,17.13
2022-08-08T18:16:11.601Z,17.00
2022-08-08T18:19:02.590Z,16.88
2022-08-08T18:22:01.350Z,16.69
2022-08-08T18:24:50.507Z,16.56
2022-08-08T18:27:39.031Z,16.50
2022-08-08T18:30:31.024Z,16.38
2022-08-08T18:36:50.469Z,16.06
2022-08-08T18:39:42.068Z,16.00
2022-08-08T18:42:30.741Z,15.94
2022-08-08T18:46:52.307Z,15.94
2022-08-08T18:48:27.719Z,16.00
2022-08-08T18:51:40.565Z,16.00
2022-08-08T18:54:29.728Z,15.94
2022-08-08T18:57:18.599Z,15.88
2022-08-08T19:00:15.846Z,15.81
2022-08-08T19:03:07.764Z,15.75
2022-08-08T19:05:55.961Z,15.69
2022-08-08T19:08:45.039Z,15.63
2022-08-08T19:11:35.292Z,15.69
2022-08-08T19:14:24.298Z,15.63
2022-08-08T19:17:29.336Z,15.63
2022-08-08T19:20:24.790Z,15.56
2022-08-08T19:23:13.168Z,15.56
2022-08-08T19:26:28.561Z,15.50
2022-08-08T19:29:20.807Z,15.50
2022-08-08T19:32:28.902Z,15.56
2022-08-08T19:35:45.489Z,15.56
2022-08-08T19:38:34.624Z,15.56
2022-08-08T19:41:31.109Z,15.56
2022-08-08T19:44:26.803Z,15.56
2022-08-08T19:47:34.141Z,15.56
2022-08-08T19:50:23.294Z,15.56
2022-08-08T19:53:46.780Z,15.63
2022-08-08T19:56:39.235Z,15.75
2022-08-08T19:59:28.957Z,15.75
2022-08-08T20:02:17.660Z,15.81
2022-08-08T20:05:08.343Z,15.88
2022-08-08T20:08:28.106Z,15.88
2022-08-08T20:11:09.875Z,15.88
2022-08-08T20:14:32.498Z,15.88
2022-08-08T20:17:06.410Z,15.81
2022-08-08T20:19:55.310Z,15.69
2022-08-08T20:22:43.701Z,15.63
2022-08-08T20:25:32.827Z,15.56
2022-08-08T20:28:28.517Z,15.50
2022-08-08T20:31:22.558Z,15.50
2022-08-08T20:34:29.794Z,15.50
2022-08-08T20:37:18.373Z,15.50
2022-08-08T20:40:08.913Z,15.50
2022-08-08T20:42:56.978Z,15.50
2022-08-08T20:45:54.938Z,15.44
2022-08-08T20:48:46.595Z,15.38
2022-08-08T20:51:36.903Z,15.31
2022-08-08T20:54:28.232Z,15.31
2022-08-08T20:57:19.040Z,15.25
2022-08-08T21:00:10.105Z,15.25
2022-08-08T21:02:58.710Z,15.25
2022-08-08T21:05:58.443Z,15.25
2022-08-08T21:08:49.006Z,15.25
2022-08-08T21:11:50.775Z,15.19
2022-08-08T21:14:40.799Z,15.19
2022-08-08T21:17:28.982Z,15.19
2022-08-08T21:20:22.085Z,15.13
2022-08-08T21:23:13.315Z,15.13
2022-08-08T21:26:05.856Z,15.06
2022-08-08T21:28:55.811Z,15.00
2022-08-08T21:31:58.385Z,15.00
2022-08-08T21:34:49.507Z,15.00
2022-08-08T21:37:54.026Z,14.94
2022-08-08T21:40:55.026Z,15.00
2022-08-08T21:43:44.878Z,15.06
2022-08-08T21:48:05.524Z,15.06
2022-08-08T21:49:45.739Z,15.00
2022-08-08T21:54:32.315Z,15.06
2022-08-08T21:56:19.113Z,15.13
2022-08-08T21:58:50.576Z,15.13
2022-08-08T22:01:43.833Z,15.13
2022-08-08T22:04:40.720Z,15.19
2022-08-08T22:07:40.249Z,15.19
2022-08-08T22:10:32.886Z,15.25
2022-08-08T22:13:21.824Z,15.25
2022-08-08T22:16:09.776Z,15.31
2022-08-08T22:18:57.987Z,15.31
2022-08-08T22:21:46.055Z,15.31
2022-08-08T22:24:35.124Z,15.38
2022-08-08T22:27:38.531Z,15.38
2022-08-08T22:30:33.853Z,15.38
2022-08-08T22:34:13.536Z,15.44
2022-08-08T22:36:34.236Z,15.50
2022-08-08T22:39:22.755Z,15.50
2022-08-08T22:42:31.868Z,15.56
2022-08-08T22:45:22.470Z,15.56
2022-08-08T22:48:10.602Z,15.56
2022-08-08T22:51:06.738Z,15.56
2022-08-08T22:54:31.785Z,15.50
2022-08-08T22:57:08.650Z,15.50
2022-08-08T23:00:13.466Z,15.56
2022-08-08T23:03:03.640Z,15.56
2022-08-08T23:05:52.095Z,15.56
2022-08-08T23:08:44.408Z,15.56
2022-08-08T23:12:18.142Z,15.56
2022-08-08T23:14:53.481Z,15.63
2022-08-08T23:17:54.290Z,15.63
2022-08-08T23:20:54.540Z,15.63
2022-08-08T23:23:48.496Z,15.69
2022-08-08T23:26:44.432Z,15.69
2022-08-08T23:29:55.047Z,15.69
2022-08-08T23:32:45.032Z,15.75
2022-08-08T23:35:34.312Z,15.75
2022-08-08T23:38:41.917Z,15.75
2022-08-08T23:41:33.050Z,15.69
2022-08-08T23:44:39.965Z,15.69
2022-08-08T23:49:06.160Z,15.63
2022-08-08T23:50:37.230Z,15.63
2022-08-08T23:54:06.455Z,15.63
2022-08-08T23:56:34.882Z,15.63
2022-08-08T23:59:25.040Z,15.56
